Time;durP1;ratioP1;P1;durP2;ratioP2;P2;SDS_P1;SDS_P2;PMS_P1;PMS_P2;Temp;Humidity;BMP_temperature;BMP_pressure;BME280_temperature;BME280_humidity;BME280_pressure;Samples;Min_cycle;Max_cycle;Signal;HPM_P1;HPM_P2
2023/08/18 00:00:07;;;;;;;5.70;3.22;;;;;;;20.21;75.48;97954.34;10333473;28;20076;-66
2023/08/18 00:05:51;;;;;;;4.13;3.00;;;;;;;20.20;75.54;97936.59;10332326;28;20116;-66
2023/08/18 00:11:13;;;;;;;5.97;3.35;;;;;;;20.17;75.96;97932.28;10333152;28;20046;-67
2023/08/18 00:16:33;;;;;;;5.47;3.28;;;;;;;20.10;75.70;97936.28;10332500;28;20125;-66
2023/08/18 00:21:54;;;;;;;5.25;2.90;;;;;;;19.96;76.84;97942.19;10332994;28;20117;-67
2023/08/18 00:27:15;;;;;;;4.35;3.28;;;;;;;19.88;76.88;97944.75;10333130;28;20548;-66
2023/08/18 00:32:36;;;;;;;5.95;3.05;;;;;;;19.84;77.08;97949.53;10331979;28;20484;-65
2023/08/18 00:37:57;;;;;;;5.75;3.25;;;;;;;19.78;77.58;97952.88;10338843;28;20122;-66
2023/08/18 00:43:17;;;;;;;4.32;3.45;;;;;;;19.69;77.52;97932.06;10339833;28;20601;-66
2023/08/18 00:48:38;;;;;;;6.93;3.97;;;;;;;19.67;77.79;97934.81;10340258;28;20173;-66
2023/08/18 00:53:59;;;;;;;5.88;3.40;;;;;;;19.70;78.07;97925.03;10340390;28;20077;-66
2023/08/18 00:59:20;;;;;;;5.95;3.50;;;;;;;19.67;78.50;97915.00;10338771;28;20125;-66
2023/08/18 01:04:40;;;;;;;4.50;3.20;;;;;;;19.61;78.43;97914.81;10338785;28;20138;-66
2023/08/18 01:10:01;;;;;;;4.47;3.50;;;;;;;19.54;78.77;97915.94;10338520;28;20121;-66
2023/08/18 01:15:25;;;;;;;5.60;3.25;;;;;;;19.55;79.17;97911.00;10339360;28;20118;-66
2023/08/18 01:20:46;;;;;;;3.92;3.28;;;;;;;19.53;79.13;97903.16;10338414;28;20070;-66
2023/08/18 01:26:07;;;;;;;7.82;3.97;;;;;;;19.49;79.50;97888.13;10324324;28;20070;-66
2023/08/18 01:31:28;;;;;;;5.30;3.72;;;;;;;19.43;79.37;97885.81;10337927;28;20073;-65
2023/08/18 01:36:51;;;;;;;7.00;3.60;;;;;;;19.39;79.73;97885.66;10324085;28;20125;-67
2023/08/18 01:42:12;;;;;;;5.03;3.80;;;;;;;19.34;80.10;97881.25;10337594;28;20548;-66
2023/08/18 01:47:33;;;;;;;4.75;4.00;;;;;;;19.31;80.84;97888.22;10323243;28;20117;-66
2023/08/18 01:52:54;;;;;;;8.00;4.32;;;;;;;19.28;80.04;97895.19;10338355;28;20076;-66
2023/08/18 01:58:15;;;;;;;5.78;3.92;;;;;;;19.24;80.53;97890.13;10338059;28;20125;-66
2023/08/18 02:03:36;;;;;;;5.82;3.75;;;;;;;19.18;80.38;97889.88;10322754;28;20078;-66
2023/08/18 02:08:57;;;;;;;6.70;4.07;;;;;;;19.12;80.75;97884.03;10336675;28;20545;-66
2023/08/18 02:14:18;;;;;;;4.88;4.30;;;;;;;19.11;81.43;97888.22;10336218;28;20130;-67
2023/08/18 02:19:38;;;;;;;5.85;4.13;;;;;;;19.06;81.81;97890.19;10336164;28;20138;-67
2023/08/18 02:24:59;;;;;;;6.97;4.70;;;;;;;19.14;81.94;97893.31;10336681;28;20184;-66
2023/08/18 02:30:20;;;;;;;7.05;5.25;;;;;;;19.17;82.00;97891.25;10335654;28;20125;-66
2023/08/18 02:35:43;;;;;;;5.85;4.13;;;;;;;19.15;81.93;97877.78;10336512;28;20096;-66
2023/08/18 02:41:03;;;;;;;6.18;4.53;;;;;;;19.13;82.13;97886.19;10335218;28;20122;-66
2023/08/18 02:46:24;;;;;;;6.28;4.65;;;;;;;19.08;82.27;97893.06;10336331;28;20122;-66
2023/08/18 02:51:45;;;;;;;5.63;4.68;;;;;;;19.03;82.61;97897.16;10335525;28;20485;-66
2023/08/18 02:57:05;;;;;;;7.18;4.85;;;;;;;19.03;82.94;97899.25;10335037;28;20532;-66
2023/08/18 03:02:26;;;;;;;5.38;4.40;;;;;;;18.99;82.58;97896.25;10347998;28;20078;-67
2023/08/18 03:07:47;;;;;;;7.38;4.85;;;;;;;18.92;82.80;97911.56;10320497;28;20093;-66
2023/08/18 03:13:08;;;;;;;7.65;5.43;;;;;;;18.88;83.26;97917.78;10335193;28;20529;-66
2023/08/18 03:18:28;;;;;;;7.18;5.82;;;;;;;18.85;82.55;97921.91;10334858;28;20173;-66
2023/08/18 03:23:49;;;;;;;8.50;5.90;;;;;;;18.79;83.64;97927.34;10334617;28;20125;-66
2023/08/18 03:29:10;;;;;;;8.95;7.72;;;;;;;18.86;83.11;97929.03;10347151;28;20123;-66
2023/08/18 03:34:30;;;;;;;11.85;8.98;;;;;;;18.85;82.48;97924.75;10319716;28;20118;-66
2023/08/18 03:39:55;;;;;;;11.98;8.32;;;;;;;18.74;83.82;97937.06;10333034;28;20125;-66
2023/08/18 03:45:16;;;;;;;10.43;8.98;;;;;;;18.74;83.32;97937.06;10319376;28;20103;-66
2023/08/18 03:50:37;;;;;;;12.20;8.65;;;;;;;18.76;84.50;97940.66;10346520;28;20038;-65
2023/08/18 03:56:00;;;;;;;12.90;9.48;;;;;;;18.88;85.52;97949.63;10332623;28;20046;-66
2023/08/18 04:01:21;;;;;;;11.52;9.27;;;;;;;19.01;84.87;97948.00;10346486;28;20452;-65
2023/08/18 04:06:43;;;;;;;14.80;9.23;;;;;;;19.11;85.13;97950.47;10332285;28;20130;-66
2023/08/18 04:12:04;;;;;;;10.52;8.95;;;;;;;19.25;85.28;97967.25;10341093;28;20553;-66
2023/08/18 04:17:25;;;;;;;10.73;9.02;;;;;;;19.38;85.55;97974.78;10340480;28;20146;-66
2023/08/18 04:22:47;;;;;;;11.75;9.05;;;;;;;19.58;84.86;97969.88;10340462;28;20169;-66
2023/08/18 04:28:07;;;;;;;10.80;8.57;;;;;;;19.83;84.74;97971.47;10341405;28;20472;-66
2023/08/18 04:33:29;;;;;;;10.60;9.10;;;;;;;20.07;84.29;97963.06;10340114;28;20462;-66
2023/08/18 04:38:52;;;;;;;11.87;8.97;;;;;;;20.22;83.31;97964.28;10326278;28;20137;-66
2023/08/18 04:44:20;;;;;;;10.05;7.95;;;;;;;20.32;83.34;97955.41;10339632;28;20433;-66
2023/08/18 04:49:41;;;;;;;9.35;7.60;;;;;;;20.41;82.78;97960.66;10325966;28;20145;-67
2023/08/18 04:55:03;;;;;;;9.65;8.65;;;;;;;20.54;82.59;97961.81;10339201;28;20065;-67
2023/08/18 05:00:24;;;;;;;9.43;7.85;;;;;;;20.72;82.42;97967.31;10340016;28;20121;-66
2023/08/18 05:06:08;;;;;;;8.75;7.20;;;;;;;21.00;81.89;97964.63;10352297;28;20078;-66
2023/08/18 05:11:30;;;;;;;8.68;7.45;;;;;;;21.31;80.69;97969.84;10352260;28;20509;-66
2023/08/18 05:16:50;;;;;;;9.43;7.47;;;;;;;21.48;80.35;97973.16;10338333;28;20082;-66
2023/08/18 05:22:11;;;;;;;9.55;7.07;;;;;;;21.88;80.26;97977.09;10323511;28;20089;-66
2023/08/18 05:27:32;;;;;;;8.60;7.30;;;;;;;22.27;78.91;97975.28;10338952;28;20121;-67
2023/08/18 05:32:53;;;;;;;11.30;7.00;;;;;;;22.90;78.07;97973.25;10338755;28;20113;-66
2023/08/18 05:38:14;;;;;;;10.32;6.20;;;;;;;23.89;76.52;97969.63;10351303;28;20521;-66
2023/08/18 05:43:35;;;;;;;11.68;7.18;;;;;;;25.61;74.64;97970.13;10338256;28;20077;-66
2023/08/18 05:48:56;;;;;;;11.07;7.93;;;;;;;32.37;64.93;97969.03;10337005;28;20134;-67
2023/08/18 05:54:17;;;;;;;9.65;8.20;;;;;;;37.28;52.60;97988.50;10337833;28;20480;-70
2023/08/18 05:59:38;;;;;;;8.18;7.30;;;;;;;40.32;44.90;97991.88;10337482;28;20121;-69
2023/08/18 06:04:58;;;;;;;13.67;7.90;;;;;;;42.34;39.12;97990.19;10337789;28;20062;-70
2023/08/18 06:10:19;;;;;;;7.28;6.22;;;;;;;43.88;32.96;97992.69;10337276;28;20467;-70
2023/08/18 06:15:40;;;;;;;9.45;6.45;;;;;;;45.02;28.73;98002.91;10335924;28;20093;-70
2023/08/18 06:21:01;;;;;;;7.30;6.60;;;;;;;46.24;25.47;97992.94;10336915;28;20054;-70
2023/08/18 06:26:21;;;;;;;7.72;5.88;;;;;;;46.67;22.42;98000.03;10349321;28;20081;-71
2023/08/18 06:31:43;;;;;;;7.45;5.57;;;;;;;47.52;21.37;97998.69;10335334;28;20053;-72
2023/08/18 06:37:04;;;;;;;5.68;4.78;;;;;;;48.03;18.72;97988.03;10336120;28;20081;-71
2023/08/18 06:42:24;;;;;;;5.88;4.68;;;;;;;48.17;18.04;97995.78;10336227;28;20058;-71
2023/08/18 06:47:45;;;;;;;6.90;4.50;;;;;;;49.24;17.10;97992.00;10336139;28;20057;-71
2023/08/18 06:53:06;;;;;;;5.90;4.55;;;;;;;49.17;16.21;97984.50;10335574;28;20046;-72
2023/08/18 06:58:27;;;;;;;7.32;5.45;;;;;;;49.33;15.58;97991.97;10321214;28;20066;-72
2023/08/18 07:03:48;;;;;;;6.05;3.83;;;;;;;49.39;15.49;97991.47;10334047;28;20054;-72
2023/08/18 07:09:09;;;;;;;5.63;4.32;;;;;;;50.12;15.42;97990.94;10333820;28;20101;-71
2023/08/18 07:14:30;;;;;;;5.60;4.30;;;;;;;51.32;14.72;97991.03;10334860;28;20073;-71
2023/08/18 07:19:51;;;;;;;4.07;3.72;;;;;;;50.71;13.59;97981.19;10334836;28;20077;-72
2023/08/18 07:25:12;;;;;;;4.95;3.30;;;;;;;52.38;13.86;97974.81;10334365;28;20100;-71
2023/08/18 07:30:34;;;;;;;4.13;3.15;;;;;;;52.91;13.09;97970.19;10334346;28;20066;-71
2023/08/18 07:35:54;;;;;;;4.93;2.70;;;;;;;54.10;11.79;97961.50;10333438;28;20481;-71
2023/08/18 07:41:16;;;;;;;6.15;2.58;;;;;;;55.49;10.86;97964.84;10333971;28;20053;-71
2023/08/18 07:46:36;;;;;;;5.70;3.20;;;;;;;55.73;10.72;97960.69;10333508;28;20121;-72
2023/08/18 07:51:58;;;;;;;5.30;3.10;;;;;;;55.34;10.75;97959.81;10332744;28;20043;-71
2023/08/18 07:57:20;;;;;;;3.58;2.10;;;;;;;54.95;10.69;97960.44;10333788;28;20441;-72
2023/08/18 08:02:41;;;;;;;3.72;1.70;;;;;;;55.43;9.75;97965.53;10333334;28;20065;-72
2023/08/18 08:08:03;;;;;;;3.38;1.55;;;;;;;56.11;9.92;97962.22;10332506;28;20050;-72
2023/08/18 08:13:25;;;;;;;2.45;1.30;;;;;;;56.20;8.96;97959.66;10333506;28;20057;-71
2023/08/18 08:18:46;;;;;;;2.58;1.48;;;;;;;56.89;8.72;97950.13;10332843;28;20058;-72
2023/08/18 08:24:07;;;;;;;2.92;1.42;;;;;;;57.20;9.00;97956.81;10333356;28;20046;-72
2023/08/18 08:29:28;;;;;;;3.92;1.85;;;;;;;58.05;8.57;97953.91;10332868;28;20046;-71
2023/08/18 08:34:50;;;;;;;8.57;2.85;;;;;;;56.92;8.64;97957.25;10333185;28;20386;-72
2023/08/18 08:40:17;;;;;;;4.65;2.65;;;;;;;56.64;9.46;97961.31;10331994;28;20085;-71
2023/08/18 08:45:40;;;;;;;8.10;2.78;;;;;;;55.94;9.26;97957.44;10331679;28;20042;-72
2023/08/18 08:51:03;;;;;;;5.78;2.28;;;;;;;55.25;10.29;97947.34;10331926;28;20047;-73
2023/08/18 08:56:28;;;;;;;3.58;2.22;;;;;;;55.66;9.77;97949.41;10335552;28;20038;-72
2023/08/18 09:01:49;;;;;;;3.63;2.00;;;;;;;54.83;9.93;97949.84;10338960;28;20070;-72
2023/08/18 09:07:15;;;;;;;7.05;2.20;;;;;;;54.46;10.11;97950.88;10339781;28;20042;-72
2023/08/18 09:12:36;;;;;;;3.65;1.90;;;;;;;54.58;9.93;97952.50;10338847;28;20121;-72
2023/08/18 09:17:57;;;;;;;4.32;1.90;;;;;;;55.23;9.18;97955.88;10338606;28;20109;-71
2023/08/18 09:23:19;;;;;;;3.50;1.80;;;;;;;55.46;8.60;97954.03;10339271;28;20379;-73
2023/08/18 09:28:42;;;;;;;3.22;2.08;;;;;;;55.94;8.76;97944.75;10339117;28;20058;-72
2023/08/18 09:34:03;;;;;;;2.38;1.67;;;;;;;55.90;9.38;97945.22;10337675;28;20058;-72
2023/08/18 09:39:25;;;;;;;2.38;1.98;;;;;;;55.56;9.29;97941.59;10338342;28;20042;-72
2023/08/18 09:44:46;;;;;;;6.03;2.10;;;;;;;55.71;8.63;97937.00;10337225;28;20065;-71
2023/08/18 09:50:11;;;;;;;2.75;1.80;;;;;;;55.63;9.07;97929.63;10337140;28;20082;-73
2023/08/18 09:55:34;;;;;;;3.95;1.80;;;;;;;56.62;8.51;97941.28;10336619;28;20129;-72
2023/08/18 10:00:56;;;;;;;6.03;1.90;;;;;;;57.55;8.50;97928.59;10336711;28;20042;-72
2023/08/18 10:06:17;;;;;;;4.55;2.13;;;;;;;55.53;8.89;97934.47;10337344;28;20058;-73
2023/08/18 10:11:38;;;;;;;2.53;1.70;;;;;;;53.96;9.75;97930.88;10322722;28;20121;-72
2023/08/18 10:17:03;;;;;;;4.65;1.80;;;;;;;53.29;10.18;97925.38;10323051;28;20059;-72
2023/08/18 10:22:25;;;;;;;3.78;2.13;;;;;;;53.31;10.23;97910.25;10335693;28;20463;-71
2023/08/18 10:27:47;;;;;;;4.65;3.08;;;;;;;45.85;13.69;97907.28;10309016;28;20042;-70
2023/08/18 10:33:08;;;;;;;8.25;3.13;;;;;;;42.38;19.07;97920.28;10335704;28;20053;-72
2023/08/18 10:38:30;;;;;;;5.05;3.25;;;;;;;47.68;15.39;97904.34;10336277;28;20076;-72
2023/08/18 10:43:55;;;;;;;5.20;3.20;;;;;;;47.71;14.22;97918.13;10336244;28;20397;-72
2023/08/18 10:49:17;;;;;;;7.55;3.90;;;;;;;44.97;17.51;97918.63;10335031;28;20401;-71
2023/08/18 10:54:37;;;;;;;4.45;4.00;;;;;;;41.43;18.31;97914.59;10334610;28;20382;-72
2023/08/18 10:59:58;;;;;;;5.00;3.72;;;;;;;38.49;22.40;97912.50;10335458;28;20043;-70
2023/08/18 11:05:21;;;;;;;8.35;4.22;;;;;;;37.30;23.34;97916.41;10334955;28;20061;-71
2023/08/18 11:10:45;;;;;;;7.30;3.67;;;;;;;38.03;27.08;97912.91;10320844;28;20046;-71
2023/08/18 11:16:06;;;;;;;5.63;4.22;;;;;;;40.09;23.05;97912.66;10334795;28;20100;-71
2023/08/18 11:21:28;;;;;;;6.15;4.22;;;;;;;44.87;18.17;97910.47;10334366;28;20508;-72
2023/08/18 11:26:49;;;;;;;6.93;4.03;;;;;;;46.33;15.76;97911.09;10334478;28;20536;-71
2023/08/18 11:32:11;;;;;;;8.48;3.92;;;;;;;44.13;17.29;97905.88;10334208;28;20058;-72
2023/08/18 11:37:36;;;;;;;6.15;3.83;;;;;;;43.44;18.82;97902.19;10333399;28;20053;-71
2023/08/18 11:42:57;;;;;;;6.70;4.43;;;;;;;41.04;21.07;97890.28;10306620;28;20373;-70
2023/08/18 11:48:20;;;;;;;5.63;3.70;;;;;;;38.25;23.93;97885.78;10333766;28;20113;-70
2023/08/18 11:53:42;;;;;;;9.32;4.97;;;;;;;35.37;28.27;97891.44;10333375;28;20058;-71
2023/08/18 11:59:03;;;;;;;7.32;4.13;;;;;;;34.50;29.52;97888.03;10333450;28;20058;-71
2023/08/18 12:04:25;;;;;;;6.22;3.70;;;;;;;34.55;30.14;97872.69;10333840;28;20137;-71
2023/08/18 12:09:46;;;;;;;7.35;4.10;;;;;;;34.05;31.02;97874.66;10333383;28;20058;-71
2023/08/18 12:15:07;;;;;;;8.60;4.80;;;;;;;33.65;31.21;97868.31;10333545;28;20043;-70
2023/08/18 12:20:28;;;;;;;4.68;3.88;;;;;;;33.14;32.05;97868.69;10332023;28;20049;-71
2023/08/18 12:25:49;;;;;;;7.53;4.07;;;;;;;33.43;31.68;97868.81;10333219;28;20477;-71
2023/08/18 12:31:10;;;;;;;5.10;3.30;;;;;;;33.35;31.41;97863.91;10334717;28;20069;-71
2023/08/18 12:36:31;;;;;;;4.78;3.83;;;;;;;33.05;31.26;97862.34;10340092;28;20054;-70
2023/08/18 12:41:53;;;;;;;3.72;3.42;;;;;;;33.09;31.46;97876.72;10339659;28;20113;-70
2023/08/18 12:47:14;;;;;;;4.22;3.42;;;;;;;33.31;30.94;97873.38;10340607;28;20145;-70
2023/08/18 12:52:35;;;;;;;7.35;3.00;;;;;;;33.57;30.56;97875.00;10353495;28;20053;-71
2023/08/18 12:57:56;;;;;;;6.97;2.78;;;;;;;33.58;29.94;97876.41;10339282;28;20056;-70
2023/08/18 13:03:17;;;;;;;2.90;2.55;;;;;;;33.46;28.49;97867.31;10339010;28;20058;-70
2023/08/18 13:08:38;;;;;;;4.57;2.35;;;;;;;33.46;28.84;97862.22;10338770;28;20125;-71
2023/08/18 13:13:59;;;;;;;6.18;2.75;;;;;;;33.40;29.31;97858.78;10339771;28;20504;-70
2023/08/18 13:19:20;;;;;;;5.35;3.05;;;;;;;33.47;29.02;97860.03;10338317;28;20061;-70
2023/08/18 13:24:41;;;;;;;4.53;2.67;;;;;;;33.41;29.45;97860.19;10338255;28;20424;-70
2023/08/18 13:30:02;;;;;;;4.20;2.90;;;;;;;33.17;30.05;97862.09;10324650;28;20053;-70
2023/08/18 13:35:23;;;;;;;5.97;3.10;;;;;;;32.74;30.21;97865.81;10324599;28;20050;-70
2023/08/18 13:40:49;;;;;;;7.18;2.70;;;;;;;32.64;30.79;97857.34;10337989;28;20458;-70
2023/08/18 13:46:11;;;;;;;5.60;2.95;;;;;;;32.79;30.54;97857.78;10338346;28;20057;-71
2023/08/18 13:51:32;;;;;;;;;;;;;;;32.57;29.88;97864.69;10338973;28;20137;-71
2023/08/18 13:56:53;;;;;;;3.75;2.97;;;;;;;32.46;30.36;97860.56;10337786;28;19959;-70
2023/08/18 14:02:14;;;;;;;;;;;;;;;32.49;30.38;97861.25;10338323;28;20116;-70
2023/08/18 14:07:36;;;;;;;4.20;2.92;;;;;;;32.34;31.02;97855.03;10338005;28;19921;-71
2023/08/18 14:12:57;;;;;;;6.07;2.70;;;;;;;32.43;31.19;97857.00;10336496;28;20476;-71
2023/08/18 14:18:18;;;;;;;4.50;2.50;;;;;;;32.40;31.56;97846.22;10337431;28;20057;-71
2023/08/18 14:23:39;;;;;;;4.35;2.40;;;;;;;32.14;31.53;97842.34;10336893;28;20065;-70
2023/08/18 14:29:00;;;;;;;5.28;2.83;;;;;;;32.23;30.88;97833.50;10349769;28;20042;-70
2023/08/18 14:34:21;;;;;;;2.90;2.33;;;;;;;32.13;30.57;97838.00;10335500;28;20042;-70
2023/08/18 14:39:42;;;;;;;3.40;2.35;;;;;;;32.02;31.20;97830.97;10336420;28;20289;-70
2023/08/18 14:45:04;;;;;;;3.63;2.50;;;;;;;31.73;31.28;97827.09;10335262;28;20220;-70
2023/08/18 14:50:25;;;;;;;6.13;2.30;;;;;;;31.45;31.88;97816.69;10334650;28;20053;-71
2023/08/18 14:55:50;;;;;;;7.20;2.70;;;;;;;31.35;31.90;97823.31;10334164;28;20170;-70
2023/08/18 15:01:14;;;;;;;6.90;2.58;;;;;;;31.04;32.37;97815.03;10335398;28;20042;-70
2023/08/18 15:06:36;;;;;;;4.70;2.33;;;;;;;31.11;32.63;97809.22;10320881;28;20038;-70
2023/08/18 15:11:57;;;;;;;;;;;;;;;31.11;33.22;97817.88;10335730;28;20129;-71
2023/08/18 15:17:19;;;;;;;3.07;2.20;;;;;;;30.96;33.15;97817.31;10335187;28;19929;-70
2023/08/18 15:22:41;;;;;;;8.52;2.90;;;;;;;30.94;33.02;97823.13;10334810;28;20047;-70
2023/08/18 15:28:03;;;;;;;3.00;2.30;;;;;;;30.77;32.94;97816.81;10334642;28;20401;-67
2023/08/18 15:33:24;;;;;;;5.13;2.60;;;;;;;30.60;33.38;97806.94;10334625;28;20085;-70
2023/08/18 15:38:46;;;;;;;2.72;2.40;;;;;;;30.49;33.59;97804.13;10306193;28;20046;-70
2023/08/18 15:44:07;;;;;;;3.53;2.25;;;;;;;30.34;33.85;97807.91;10334116;28;20046;-70
2023/08/18 15:49:29;;;;;;;3.80;2.42;;;;;;;30.22;34.17;97811.63;10333998;28;20117;-68
2023/08/18 15:54:50;;;;;;;3.00;2.33;;;;;;;30.15;34.49;97807.38;10332891;28;20100;-70
2023/08/18 16:00:12;;;;;;;5.38;3.05;;;;;;;30.14;34.84;97805.94;10333662;28;20053;-70
2023/08/18 16:05:33;;;;;;;3.45;2.35;;;;;;;30.22;35.08;97805.16;10333352;28;20050;-67
2023/08/18 16:10:54;;;;;;;5.65;2.70;;;;;;;30.19;34.92;97807.31;10333444;28;20050;-68
2023/08/18 16:16:15;;;;;;;4.93;2.70;;;;;;;30.09;35.29;97799.50;10332004;28;20043;-70
2023/08/18 16:21:36;;;;;;;4.82;2.70;;;;;;;30.00;35.46;97800.28;10333166;28;20047;-67
2023/08/18 16:26:58;;;;;;;4.67;2.70;;;;;;;29.79;35.66;97797.56;10332089;28;20046;-68
2023/08/18 16:32:20;;;;;;;3.33;2.50;;;;;;;29.70;35.43;97801.25;10332946;28;20046;-68
2023/08/18 16:37:45;;;;;;;6.07;2.42;;;;;;;29.62;35.84;97796.28;10305336;28;20054;-67
2023/08/18 16:43:06;;;;;;;3.80;2.40;;;;;;;29.57;36.13;97800.63;10318469;28;20043;-67
2023/08/18 16:48:27;;;;;;;6.63;2.50;;;;;;;29.47;36.50;97801.41;10331661;28;20054;-68
2023/08/18 16:53:48;;;;;;;4.72;2.50;;;;;;;29.42;36.64;97802.13;10331209;28;20802;-68
2023/08/18 16:59:09;;;;;;;2.85;2.13;;;;;;;29.28;37.00;97806.53;10331823;28;20043;-68
2023/08/18 17:04:34;;;;;;;4.90;2.50;;;;;;;29.22;36.89;97811.59;10332602;28;20456;-68
2023/08/18 17:09:56;;;;;;;3.58;2.38;;;;;;;29.04;37.19;97812.41;10332336;28;20046;-70
2023/08/18 17:15:17;;;;;;;3.42;2.72;;;;;;;28.77;37.47;97821.13;10332497;28;20043;-70
2023/08/18 17:20:41;;;;;;;4.22;2.65;;;;;;;28.51;38.09;97819.03;10339193;28;20038;-70
2023/08/18 17:26:02;;;;;;;4.55;2.67;;;;;;;28.32;38.25;97828.41;10338255;28;20046;-69
2023/08/18 17:31:23;;;;;;;3.40;2.63;;;;;;;28.11;38.50;97831.28;10338122;28;20113;-70
2023/08/18 17:36:45;;;;;;;4.75;2.63;;;;;;;27.88;39.42;97835.56;10338966;28;20105;-69
2023/08/18 17:42:06;;;;;;;4.30;2.80;;;;;;;27.67;39.79;97834.84;10338734;28;20049;-67
2023/08/18 17:47:26;;;;;;;3.78;2.78;;;;;;;27.54;40.33;97836.22;10337422;28;20062;-67
2023/08/18 17:52:47;;;;;;;4.85;3.30;;;;;;;27.36;40.53;97828.31;10338313;28;20073;-67
2023/08/18 17:58:08;;;;;;;5.43;3.20;;;;;;;27.25;40.77;97830.44;10338061;28;20074;-67
2023/08/18 18:03:29;;;;;;;4.65;3.03;;;;;;;27.19;41.64;97833.28;10337742;28;20138;-66
2023/08/18 18:08:50;;;;;;;5.22;3.40;;;;;;;27.08;41.92;97837.53;10337606;28;20053;-67
2023/08/18 18:14:11;;;;;;;4.28;3.10;;;;;;;26.94;41.80;97848.94;10337400;28;20050;-68
2023/08/18 18:19:31;;;;;;;6.32;2.75;;;;;;;26.81;42.81;97856.72;10337425;28;20154;-67
2023/08/18 18:24:53;;;;;;;5.18;3.30;;;;;;;26.65;42.80;97854.50;10336876;28;20056;-67
2023/08/18 18:30:14;;;;;;;7.33;3.80;;;;;;;26.50;43.23;97865.13;10335893;28;20445;-67
2023/08/18 18:35:35;;;;;;;8.52;3.70;;;;;;;26.36;43.50;97867.91;10336439;28;20097;-67
2023/08/18 18:40:56;;;;;;;4.53;3.35;;;;;;;26.26;44.30;97882.13;10335358;28;20103;-66
2023/08/18 18:46:17;;;;;;;4.90;3.58;;;;;;;26.15;44.55;97877.72;10335958;28;20048;-67
2023/08/18 18:51:38;;;;;;;5.80;3.80;;;;;;;26.04;45.30;97881.94;10335959;28;20460;-67
2023/08/18 18:56:59;;;;;;;6.13;3.58;;;;;;;25.94;45.56;97891.84;10335821;28;20046;-66
2023/08/18 19:02:20;;;;;;;5.13;3.20;;;;;;;25.84;45.81;97899.63;10334424;28;20058;-68
2023/08/18 19:07:42;;;;;;;6.03;3.57;;;;;;;25.66;46.27;97897.28;10335249;28;20047;-68
2023/08/18 19:13:02;;;;;;;4.65;3.30;;;;;;;25.48;47.17;97899.94;10333953;28;20325;-67
2023/08/18 19:18:24;;;;;;;5.27;3.70;;;;;;;25.41;47.60;97902.03;10333906;28;20077;-67
2023/08/18 19:23:49;;;;;;;6.28;3.83;;;;;;;25.31;47.96;97905.47;10320392;28;20081;-67
2023/08/18 19:29:10;;;;;;;7.67;3.57;;;;;;;25.22;48.50;97898.22;10333795;28;20113;-66
2023/08/18 19:34:32;;;;;;;5.75;3.67;;;;;;;25.16;48.38;97886.72;10319882;28;20069;-67
2023/08/18 19:39:53;;;;;;;5.53;3.67;;;;;;;25.10;49.03;97898.81;10319357;28;20140;-68
2023/08/18 19:45:13;;;;;;;9.35;3.78;;;;;;;25.05;49.42;97903.00;10333232;28;20121;-67
2023/08/18 19:50:34;;;;;;;7.22;3.55;;;;;;;25.00;49.43;97900.78;10333678;28;20050;-66
2023/08/18 19:55:55;;;;;;;7.65;4.18;;;;;;;24.97;49.87;97899.28;10333513;28;20501;-66
2023/08/18 20:01:16;;;;;;;7.75;4.15;;;;;;;24.93;50.24;97890.69;10333472;28;20564;-67
2023/08/18 20:06:38;;;;;;;10.27;4.55;;;;;;;24.82;50.59;97899.13;10332394;28;20129;-67
2023/08/18 20:11:59;;;;;;;7.53;4.30;;;;;;;24.73;51.15;97900.41;10332345;28;20050;-67
2023/08/18 20:17:20;;;;;;;6.88;4.55;;;;;;;24.71;51.44;97893.97;10332287;28;20062;-66
2023/08/18 20:22:41;;;;;;;7.20;4.57;;;;;;;24.65;51.87;97894.59;10333327;28;20046;-67
2023/08/18 20:28:02;;;;;;;9.13;4.97;;;;;;;24.61;51.79;97893.78;10333241;28;20069;-67
2023/08/18 20:33:24;;;;;;;6.72;4.65;;;;;;;24.57;52.49;97891.63;10333243;28;20477;-67
2023/08/18 20:38:45;;;;;;;7.30;4.88;;;;;;;24.53;52.47;97891.56;10333205;28;20042;-67
2023/08/18 20:44:09;;;;;;;8.23;4.38;;;;;;;24.48;52.86;97899.34;10333076;28;20050;-67
2023/08/18 20:49:30;;;;;;;5.47;4.57;;;;;;;24.43;53.05;97888.56;10333103;28;20072;-66
2023/08/18 20:54:51;;;;;;;8.27;4.18;;;;;;;24.40;53.28;97895.63;10339543;28;20074;-67
2023/08/18 21:00:13;;;;;;;8.95;4.50;;;;;;;24.38;53.95;97901.31;10340609;28;20046;-68
2023/08/18 21:05:34;;;;;;;6.25;4.22;;;;;;;24.31;54.17;97906.19;10338991;28;20472;-66
2023/08/18 21:10:55;;;;;;;7.53;4.50;;;;;;;24.25;54.54;97915.34;10339102;28;20043;-67
2023/08/18 21:16:17;;;;;;;8.35;4.90;;;;;;;24.15;54.95;97906.63;10339632;28;20452;-67
2023/08/18 21:21:37;;;;;;;6.40;4.95;;;;;;;23.98;55.49;97905.63;10338683;28;20066;-67
2023/08/18 21:26:58;;;;;;;8.57;4.55;;;;;;;23.82;55.85;97901.78;10339554;28;20054;-67
2023/08/18 21:32:19;;;;;;;5.07;4.25;;;;;;;23.72;56.60;97896.63;10339099;28;20119;-67
2023/08/18 21:37:40;;;;;;;6.47;4.88;;;;;;;23.70;56.81;97903.00;10338852;28;20394;-66
2023/08/18 21:43:01;;;;;;;6.75;4.60;;;;;;;23.69;57.19;97903.69;10338780;28;20404;-66
2023/08/18 21:48:22;;;;;;;7.20;4.97;;;;;;;23.61;57.65;97898.56;10338759;28;20396;-67
2023/08/18 21:53:43;;;;;;;6.18;4.30;;;;;;;23.56;57.94;97911.28;10337112;28;20134;-67
2023/08/18 21:59:04;;;;;;;7.20;4.10;;;;;;;23.54;58.24;97904.78;10337314;28;20137;-66
2023/08/18 22:04:25;;;;;;;5.93;4.68;;;;;;;23.50;58.78;97908.31;10336286;28;20065;-67
2023/08/18 22:09:48;;;;;;;6.60;4.72;;;;;;;23.41;58.87;97906.69;10337929;28;20468;-67
2023/08/18 22:15:10;;;;;;;;;;;;;;;23.44;59.57;97908.19;10338115;28;20125;-67
2023/08/18 22:20:31;;;;;;;6.10;4.87;;;;;;;23.44;58.99;97905.31;10337452;28;19961;-67
2023/08/18 22:25:52;;;;;;;5.50;4.47;;;;;;;23.43;59.17;97901.03;10337351;28;20511;-67
2023/08/18 22:31:13;;;;;;;5.32;4.78;;;;;;;23.40;59.25;97894.59;10336863;28;20173;-67
2023/08/18 22:36:34;;;;;;;5.32;4.68;;;;;;;23.33;59.64;97906.53;10336960;28;20185;-67
2023/08/18 22:41:55;;;;;;;5.47;4.30;;;;;;;23.25;59.86;97903.53;10336880;28;20552;-67
2023/08/18 22:47:16;;;;;;;8.10;4.43;;;;;;;23.23;59.86;97900.63;10336537;28;20122;-66
2023/08/18 22:52:37;;;;;;;6.45;4.93;;;;;;;23.17;60.44;97897.69;10321912;28;20125;-66
2023/08/18 22:57:57;;;;;;;5.78;4.50;;;;;;;23.12;60.47;97908.97;10336030;28;20113;-67
2023/08/18 23:03:18;;;;;;;7.97;4.55;;;;;;;23.08;60.93;97913.88;10335799;28;20100;-67
2023/08/18 23:08:39;;;;;;;7.60;4.63;;;;;;;22.97;61.15;97912.94;10334427;28;20118;-67
2023/08/18 23:14:00;;;;;;;8.15;4.97;;;;;;;22.85;61.84;97906.97;10334610;28;20124;-66
2023/08/18 23:19:21;;;;;;;6.20;4.35;;;;;;;22.75;61.84;97903.88;10334090;28;20461;-67
2023/08/18 23:24:42;;;;;;;5.97;4.75;;;;;;;22.69;62.59;97909.44;10334911;28;20117;-66
2023/08/18 23:30:03;;;;;;;6.03;5.25;;;;;;;22.59;62.80;97906.38;10334726;28;20074;-67
2023/08/18 23:35:27;;;;;;;5.35;4.47;;;;;;;22.51;63.22;97901.94;10334392;28;20189;-67
2023/08/18 23:40:48;;;;;;;6.95;4.85;;;;;;;22.45;63.33;97920.97;10320396;28;20604;-67
2023/08/18 23:46:09;;;;;;;11.18;4.72;;;;;;;22.36;63.83;97914.38;10334054;28;20164;-67
2023/08/18 23:51:30;;;;;;;5.20;4.70;;;;;;;22.21;64.29;97915.44;10334042;28;20113;-67
2023/08/18 23:56:51;;;;;;;5.43;4.70;;;;;;;22.10;64.65;97905.19;10333677;28;20626;-67
